sensor_id;sensor_type;location;lat;lon;timestamp;pressure;altitude;pressure_sealevel;temperature;humidity
61786;BME280;47692;53.714;11.372;2023-07-20T00:02:14;100402.28;;;13.63;100.00
61786;BME280;47692;53.714;11.372;2023-07-20T00:04:40;100397.38;;;13.53;100.00
61786;BME280;47692;53.714;11.372;2023-07-20T00:07:05;100380.06;;;13.49;100.00
61786;BME280;47692;53.714;11.372;2023-07-20T00:09:30;100390.56;;;13.49;100.00
61786;BME280;47692;53.714;11.372;2023-07-20T00:11:56;100394.25;;;13.45;100.00
61786;BME280;47692;53.714;11.372;2023-07-20T00:14:22;100373.25;;;13.45;100.00
61786;BME280;47692;53.714;11.372;2023-07-20T00:16:50;100380.06;;;13.49;100.00
61786;BME280;47692;53.714;11.372;2023-07-20T00:19:24;100373.13;;;13.48;100.00
61786;BME280;47692;53.714;11.372;2023-07-20T00:21:50;100364.88;;;13.35;100.00
61786;BME280;47692;53.714;11.372;2023-07-20T00:24:15;100378.97;;;13.33;100.00
61786;BME280;47692;53.714;11.372;2023-07-20T00:26:40;100378.97;;;13.33;100.00
61786;BME280;47692;53.714;11.372;2023-07-20T00:29:06;100385.88;;;13.34;100.00
61786;BME280;47692;53.714;11.372;2023-07-20T00:31:31;100387.78;;;13.30;100.00
61786;BME280;47692;53.714;11.372;2023-07-20T00:33:56;100372.47;;;13.19;100.00
61786;BME280;47692;53.714;11.372;2023-07-20T00:36:22;100382.97;;;13.19;100.00
61786;BME280;47692;53.714;11.372;2023-07-20T00:38:47;100379.78;;;13.11;100.00
61786;BME280;47692;53.714;11.372;2023-07-20T00:41:13;100376.34;;;13.09;100.00
61786;BME280;47692;53.714;11.372;2023-07-20T00:43:38;100377.16;;;13.11;100.00
61786;BME280;47692;53.714;11.372;2023-07-20T00:46:03;100357.97;;;13.11;100.00
61786;BME280;47692;53.714;11.372;2023-07-20T00:48:30;100374.66;;;13.08;100.00
61786;BME280;47692;53.714;11.372;2023-07-20T00:50:57;100374.78;;;13.05;100.00
61786;BME280;47692;53.714;11.372;2023-07-20T00:53:23;100356.44;;;13.05;100.00
61786;BME280;47692;53.714;11.372;2023-07-20T00:55:48;100367.81;;;13.04;100.00
61786;BME280;47692;53.714;11.372;2023-07-20T00:58:14;100359.28;;;12.99;100.00
61786;BME280;47692;53.714;11.372;2023-07-20T01:00:39;100313.16;;;12.95;100.00
61786;BME280;47692;53.714;11.372;2023-07-20T01:03:04;100308.84;;;12.93;100.00
61786;BME280;47692;53.714;11.372;2023-07-20T01:05:41;100317.78;;;12.88;100.00
61786;BME280;47692;53.714;11.372;2023-07-20T01:08:47;100329.06;;;12.90;100.00
61786;BME280;47692;53.714;11.372;2023-07-20T01:13:56;100341.78;;;12.77;100.00
61786;BME280;47692;53.714;11.372;2023-07-20T01:16:21;100313.06;;;12.74;100.00
61786;BME280;47692;53.714;11.372;2023-07-20T01:18:46;100321.09;;;12.69;100.00
61786;BME280;47692;53.714;11.372;2023-07-20T01:21:22;100326.59;;;12.63;100.00
61786;BME280;47692;53.714;11.372;2023-07-20T01:24:15;100306.25;;;12.70;100.00
61786;BME280;47692;53.714;11.372;2023-07-20T01:31:54;100317.13;;;12.59;100.00
61786;BME280;47692;53.714;11.372;2023-07-20T01:34:21;100315.00;;;12.69;100.00
61786;BME280;47692;53.714;11.372;2023-07-20T01:36:48;100325.25;;;12.75;100.00
61786;BME280;47692;53.714;11.372;2023-07-20T01:39:16;100332.06;;;12.79;100.00
61786;BME280;47692;53.714;11.372;2023-07-20T01:41:42;100335.66;;;12.76;100.00
61786;BME280;47692;53.714;11.372;2023-07-20T01:44:08;100339.41;;;12.71;100.00
61786;BME280;47692;53.714;11.372;2023-07-20T01:46:33;100335.28;;;12.64;100.00
61786;BME280;47692;53.714;11.372;2023-07-20T01:48:59;100338.13;;;12.57;100.00
61786;BME280;47692;53.714;11.372;2023-07-20T01:51:24;100332.22;;;12.52;100.00
61786;BME280;47692;53.714;11.372;2023-07-20T01:53:49;100332.91;;;12.57;100.00
61786;BME280;47692;53.714;11.372;2023-07-20T01:56:15;100320.31;;;12.67;100.00
61786;BME280;47692;53.714;11.372;2023-07-20T01:58:40;100245.44;;;12.61;100.00
61786;BME280;47692;53.714;11.372;2023-07-20T03:42:01;100379.19;;;12.81;100.00
61786;BME280;47692;53.714;11.372;2023-07-20T03:44:27;100347.94;;;12.76;100.00
61786;BME280;47692;53.714;11.372;2023-07-20T03:46:52;100311.25;;;12.76;100.00
61786;BME280;47692;53.714;11.372;2023-07-20T03:49:18;100393.25;;;12.78;100.00
61786;BME280;47692;53.714;11.372;2023-07-20T03:51:43;100332.28;;;12.74;100.00
61786;BME280;47692;53.714;11.372;2023-07-20T03:54:08;100326.97;;;12.76;100.00
61786;BME280;47692;53.714;11.372;2023-07-20T03:56:34;100341.78;;;12.77;100.00
61786;BME280;47692;53.714;11.372;2023-07-20T03:59:01;100400.31;;;12.76;100.00
61786;BME280;47692;53.714;11.372;2023-07-20T04:01:26;100340.22;;;12.71;100.00
61786;BME280;47692;53.714;11.372;2023-07-20T04:03:51;100329.03;;;12.68;100.00
61786;BME280;47692;53.714;11.372;2023-07-20T04:06:17;100340.38;;;12.68;100.00
61786;BME280;47692;53.714;11.372;2023-07-20T04:08:43;100355.22;;;12.68;100.00
61786;BME280;47692;53.714;11.372;2023-07-20T04:11:08;100367.41;;;12.69;100.00
61786;BME280;47692;53.714;11.372;2023-07-20T04:13:33;100361.19;;;12.71;100.00
61786;BME280;47692;53.714;11.372;2023-07-20T04:15:59;100370.69;;;12.74;100.00
61786;BME280;47692;53.714;11.372;2023-07-20T04:18:25;100455.38;;;12.74;100.00
61786;BME280;47692;53.714;11.372;2023-07-20T04:20:50;100378.38;;;12.79;100.00
61786;BME280;47692;53.714;11.372;2023-07-20T04:23:16;100456.00;;;12.81;100.00
61786;BME280;47692;53.714;11.372;2023-07-20T04:25:43;100471.72;;;12.81;100.00
61786;BME280;47692;53.714;11.372;2023-07-20T04:28:09;100392.00;;;12.88;100.00
61786;BME280;47692;53.714;11.372;2023-07-20T04:30:35;100403.28;;;12.90;100.00
61786;BME280;47692;53.714;11.372;2023-07-20T04:33:02;100414.25;;;13.00;100.00
61786;BME280;47692;53.714;11.372;2023-07-20T04:35:50;100413.41;;;13.00;100.00
61786;BME280;47692;53.714;11.372;2023-07-20T04:38:17;100413.28;;;13.03;100.00
61786;BME280;47692;53.714;11.372;2023-07-20T04:40:47;100453.41;;;13.05;100.00
61786;BME280;47692;53.714;11.372;2023-07-20T04:43:17;100489.19;;;13.06;100.00
61786;BME280;47692;53.714;11.372;2023-07-20T04:45:42;100413.19;;;13.06;100.00
61786;BME280;47692;53.714;11.372;2023-07-20T04:48:14;100496.69;;;13.15;100.00
61786;BME280;47692;53.714;11.372;2023-07-20T04:50:41;100434.75;;;13.13;100.00
61786;BME280;47692;53.714;11.372;2023-07-20T04:53:08;100493.28;;;13.13;100.00
61786;BME280;47692;53.714;11.372;2023-07-20T04:55:35;100501.03;;;13.16;100.00
61786;BME280;47692;53.714;11.372;2023-07-20T04:58:02;100437.94;;;13.21;100.00
61786;BME280;47692;53.714;11.372;2023-07-20T05:00:29;100482.56;;;13.19;100.00
61786;BME280;47692;53.714;11.372;2023-07-20T05:02:55;100498.97;;;13.24;100.00
61786;BME280;47692;53.714;11.372;2023-07-20T05:05:20;100440.16;;;13.32;100.00
61786;BME280;47692;53.714;11.372;2023-07-20T05:07:45;100417.34;;;13.34;100.00
61786;BME280;47692;53.714;11.372;2023-07-20T05:10:11;100505.16;;;13.47;100.00
61786;BME280;47692;53.714;11.372;2023-07-20T05:12:36;100522.97;;;13.39;100.00
61786;BME280;47692;53.714;11.372;2023-07-20T05:15:02;100451.94;;;13.45;100.00
61786;BME280;47692;53.714;11.372;2023-07-20T05:17:28;100432.63;;;13.46;100.00
61786;BME280;47692;53.714;11.372;2023-07-20T05:19:54;100504.38;;;13.45;100.00
61786;BME280;47692;53.714;11.372;2023-07-20T05:22:19;100441.16;;;13.51;100.00
61786;BME280;47692;53.714;11.372;2023-07-20T05:24:44;100512.78;;;13.53;100.00
61786;BME280;47692;53.714;11.372;2023-07-20T05:27:10;100511.81;;;13.56;100.00
61786;BME280;47692;53.714;11.372;2023-07-20T05:29:35;100517.84;;;13.58;100.00
61786;BME280;47692;53.714;11.372;2023-07-20T05:35:23;100523.03;;;13.60;100.00
61786;BME280;47692;53.714;11.372;2023-07-20T05:41:09;100511.34;;;13.68;100.00
61786;BME280;47692;53.714;11.372;2023-07-20T05:43:35;100528.63;;;13.74;100.00
61786;BME280;47692;53.714;11.372;2023-07-20T05:46:01;100521.53;;;13.76;100.00
61786;BME280;47692;53.714;11.372;2023-07-20T05:48:26;100515.75;;;13.68;100.00
61786;BME280;47692;53.714;11.372;2023-07-20T05:50:51;100511.22;;;13.71;100.00
61786;BME280;47692;53.714;11.372;2023-07-20T05:53:17;100513.66;;;13.76;100.00
61786;BME280;47692;53.714;11.372;2023-07-20T05:55:42;100510.50;;;13.68;100.00
61786;BME280;47692;53.714;11.372;2023-07-20T05:58:07;100512.00;;;13.73;100.00
61786;BME280;47692;53.714;11.372;2023-07-20T06:00:33;100512.66;;;13.79;100.00
61786;BME280;47692;53.714;11.372;2023-07-20T06:02:58;100501.94;;;13.85;100.00
61786;BME280;47692;53.714;11.372;2023-07-20T06:09:00;100507.84;;;14.12;100.00
61786;BME280;47692;53.714;11.372;2023-07-20T06:11:29;100503.28;;;14.17;100.00
61786;BME280;47692;53.714;11.372;2023-07-20T06:13:54;100505.44;;;14.28;100.00
61786;BME280;47692;53.714;11.372;2023-07-20T06:16:20;100502.63;;;14.33;100.00
61786;BME280;47692;53.714;11.372;2023-07-20T06:18:45;100514.41;;;14.45;100.00
61786;BME280;47692;53.714;11.372;2023-07-20T06:21:10;100510.53;;;14.53;100.00
61786;BME280;47692;53.714;11.372;2023-07-20T06:23:36;100525.09;;;14.61;100.00
61786;BME280;47692;53.714;11.372;2023-07-20T06:26:01;100524.13;;;14.63;100.00
61786;BME280;47692;53.714;11.372;2023-07-20T06:28:26;100527.38;;;14.70;100.00
61786;BME280;47692;53.714;11.372;2023-07-20T06:30:51;100527.69;;;14.83;100.00
61786;BME280;47692;53.714;11.372;2023-07-20T06:33:17;100536.03;;;14.93;100.00
61786;BME280;47692;53.714;11.372;2023-07-20T06:35:43;100534.84;;;15.00;100.00
61786;BME280;47692;53.714;11.372;2023-07-20T06:38:08;100541.25;;;15.13;100.00
61786;BME280;47692;53.714;11.372;2023-07-20T06:40:33;100527.59;;;15.05;93.93
61786;BME280;47692;53.714;11.372;2023-07-20T06:42:59;100533.66;;;15.07;93.54
61786;BME280;47692;53.714;11.372;2023-07-20T06:45:24;100527.31;;;15.11;92.75
61786;BME280;47692;53.714;11.372;2023-07-20T06:47:49;100548.09;;;15.17;92.22
61786;BME280;47692;53.714;11.372;2023-07-20T06:50:14;100537.28;;;15.24;89.54
61786;BME280;47692;53.714;11.372;2023-07-20T06:52:40;100551.03;;;15.30;87.69
61786;BME280;47692;53.714;11.372;2023-07-20T06:55:06;100546.41;;;15.35;87.62
61786;BME280;47692;53.714;11.372;2023-07-20T06:57:32;100539.78;;;15.27;89.12
61786;BME280;47692;53.714;11.372;2023-07-20T06:59:57;100538.84;;;15.28;89.37
61786;BME280;47692;53.714;11.372;2023-07-20T07:02:23;100527.84;;;15.19;86.01
61786;BME280;47692;53.714;11.372;2023-07-20T07:04:48;100523.78;;;15.12;86.16
61786;BME280;47692;53.714;11.372;2023-07-20T07:07:14;100532.19;;;15.21;86.97
61786;BME280;47692;53.714;11.372;2023-07-20T07:09:40;100534.63;;;15.44;87.79
61786;BME280;47692;53.714;11.372;2023-07-20T07:12:05;100537.72;;;15.52;86.80
61786;BME280;47692;53.714;11.372;2023-07-20T07:14:31;100535.75;;;15.58;85.10
61786;BME280;47692;53.714;11.372;2023-07-20T07:16:56;100534.19;;;15.54;85.10
61786;BME280;47692;53.714;11.372;2023-07-20T07:19:21;100537.44;;;15.59;84.37
61786;BME280;47692;53.714;11.372;2023-07-20T07:21:46;100527.53;;;15.64;81.70
61786;BME280;47692;53.714;11.372;2023-07-20T07:24:12;100538.66;;;15.71;82.68
61786;BME280;47692;53.714;11.372;2023-07-20T07:26:37;100542.72;;;15.97;84.44
61786;BME280;47692;53.714;11.372;2023-07-20T07:29:03;100549.50;;;16.20;82.27
61786;BME280;47692;53.714;11.372;2023-07-20T07:31:29;100543.53;;;16.34;79.67
61786;BME280;47692;53.714;11.372;2023-07-20T07:33:56;100545.41;;;16.32;79.03
61786;BME280;47692;53.714;11.372;2023-07-20T07:36:21;100535.75;;;16.13;80.12
61786;BME280;47692;53.714;11.372;2023-07-20T07:38:46;100534.44;;;16.05;79.95
61786;BME280;47692;53.714;11.372;2023-07-20T07:41:12;100541.81;;;16.15;80.36
61786;BME280;47692;53.714;11.372;2023-07-20T07:43:37;100534.41;;;16.24;77.69
61786;BME280;47692;53.714;11.372;2023-07-20T07:46:03;100530.69;;;16.28;76.25
61786;BME280;47692;53.714;11.372;2023-07-20T07:48:29;100538.59;;;16.45;77.61
61786;BME280;47692;53.714;11.372;2023-07-20T07:50:54;100545.09;;;16.56;76.15
61786;BME280;47692;53.714;11.372;2023-07-20T07:53:19;100547.72;;;16.73;77.44
61786;BME280;47692;53.714;11.372;2023-07-20T07:55:47;100546.19;;;16.69;73.28
61786;BME280;47692;53.714;11.372;2023-07-20T07:58:13;100544.16;;;16.57;72.19
61786;BME280;47692;53.714;11.372;2023-07-20T08:00:38;100542.22;;;16.60;71.49
61786;BME280;47692;53.714;11.372;2023-07-20T08:03:06;100546.34;;;16.66;71.41
61786;BME280;47692;53.714;11.372;2023-07-20T08:05:32;100543.84;;;16.80;72.01
61786;BME280;47692;53.714;11.372;2023-07-20T08:07:57;100548.66;;;16.90;72.10
61786;BME280;47692;53.714;11.372;2023-07-20T08:10:22;100543.09;;;16.96;70.85
61786;BME280;47692;53.714;11.372;2023-07-20T08:12:48;100543.94;;;16.96;71.05
61786;BME280;47692;53.714;11.372;2023-07-20T08:15:14;100552.81;;;17.11;69.42
61786;BME280;47692;53.714;11.372;2023-07-20T08:17:41;100548.41;;;17.28;69.24
61786;BME280;47692;53.714;11.372;2023-07-20T08:20:06;100540.19;;;17.34;66.83
61786;BME280;47692;53.714;11.372;2023-07-20T08:22:34;100547.94;;;17.37;66.10
61786;BME280;47692;53.714;11.372;2023-07-20T08:25:00;100543.78;;;17.49;65.47
61786;BME280;47692;53.714;11.372;2023-07-20T08:27:25;100553.25;;;17.69;66.92
61786;BME280;47692;53.714;11.372;2023-07-20T08:29:51;100536.38;;;17.56;65.48
61786;BME280;47692;53.714;11.372;2023-07-20T08:32:16;100542.44;;;17.58;67.18
61786;BME280;47692;53.714;11.372;2023-07-20T08:34:42;100534.31;;;17.45;65.90
61786;BME280;47692;53.714;11.372;2023-07-20T08:37:07;100547.63;;;17.43;66.80
61786;BME280;47692;53.714;11.372;2023-07-20T08:39:35;100555.09;;;17.51;65.52
61786;BME280;47692;53.714;11.372;2023-07-20T08:42:01;100547.63;;;17.43;64.73
61786;BME280;47692;53.714;11.372;2023-07-20T08:44:31;100534.31;;;17.29;64.27
61786;BME280;47692;53.714;11.372;2023-07-20T08:46:57;100534.97;;;17.17;64.78
61786;BME280;47692;53.714;11.372;2023-07-20T08:49:23;100526.28;;;17.15;66.33
61786;BME280;47692;53.714;11.372;2023-07-20T08:51:52;100522.09;;;17.10;67.60
61786;BME280;47692;53.714;11.372;2023-07-20T08:54:18;100526.28;;;17.15;68.98
61786;BME280;47692;53.714;11.372;2023-07-20T08:56:45;100533.13;;;17.35;67.46
61786;BME280;47692;53.714;11.372;2023-07-20T08:59:12;100536.53;;;17.53;63.72
61786;BME280;47692;53.714;11.372;2023-07-20T09:01:39;100538.25;;;17.86;64.30
61786;BME280;47692;53.714;11.372;2023-07-20T09:04:04;100544.91;;;17.93;63.82
61786;BME280;47692;53.714;11.372;2023-07-20T09:06:30;100539.97;;;17.87;63.23
61786;BME280;47692;53.714;11.372;2023-07-20T09:08:55;100548.97;;;17.83;63.52
61786;BME280;47692;53.714;11.372;2023-07-20T09:11:21;100537.91;;;17.92;64.89
61786;BME280;47692;53.714;11.372;2023-07-20T09:17:12;100543.91;;;17.96;63.71
61786;BME280;47692;53.714;11.372;2023-07-20T09:19:38;100541.75;;;18.02;64.28
61786;BME280;47692;53.714;11.372;2023-07-20T09:22:05;100541.16;;;18.13;65.34
61786;BME280;47692;53.714;11.372;2023-07-20T09:24:31;100548.63;;;18.21;65.73
61786;BME280;47692;53.714;11.372;2023-07-20T09:26:57;100554.91;;;18.34;63.59
61786;BME280;47692;53.714;11.372;2023-07-20T09:29:26;100559.84;;;18.40;63.65
61786;BME280;47692;53.714;11.372;2023-07-20T09:31:59;100545.03;;;18.52;63.86
61786;BME280;47692;53.714;11.372;2023-07-20T09:34:29;100549.91;;;18.74;63.04
61786;BME280;47692;53.714;11.372;2023-07-20T09:36:55;100561.38;;;18.89;64.47
61786;BME280;47692;53.714;11.372;2023-07-20T09:39:20;100565.28;;;18.98;62.83
61786;BME280;47692;53.714;11.372;2023-07-20T09:41:46;100551.66;;;18.90;62.51
61786;BME280;47692;53.714;11.372;2023-07-20T09:44:14;100558.47;;;18.94;63.56
61786;BME280;47692;53.714;11.372;2023-07-20T09:46:49;100560.09;;;19.11;61.78
61786;BME280;47692;53.714;11.372;2023-07-20T09:49:17;100567.03;;;19.28;61.46
61786;BME280;47692;53.714;11.372;2023-07-20T09:51:44;100559.81;;;19.30;59.35
61786;BME280;47692;53.714;11.372;2023-07-20T09:54:10;100563.03;;;19.35;59.75
61786;BME280;47692;53.714;11.372;2023-07-20T09:56:37;100562.63;;;19.56;59.27
61786;BME280;47692;53.714;11.372;2023-07-20T09:59:04;100553.06;;;19.68;58.56
61786;BME280;47692;53.714;11.372;2023-07-20T10:01:29;100540.03;;;19.50;57.56
61786;BME280;47692;53.714;11.372;2023-07-20T10:03:58;100554.81;;;19.40;58.42
61786;BME280;47692;53.714;11.372;2023-07-20T10:06:24;100540.56;;;19.28;59.11
61786;BME280;47692;53.714;11.372;2023-07-20T10:08:53;100552.81;;;19.29;60.08
61786;BME280;47692;53.714;11.372;2023-07-20T10:11:18;100537.16;;;19.26;59.88
61786;BME280;47692;53.714;11.372;2023-07-20T10:13:46;100550.94;;;19.02;59.70
61786;BME280;47692;53.714;11.372;2023-07-20T10:16:22;100552.09;;;18.68;64.90
61786;BME280;47692;53.714;11.372;2023-07-20T10:21:29;100538.25;;;17.54;73.59
61786;BME280;47692;53.714;11.372;2023-07-20T10:23:59;100531.06;;;17.24;75.06
61786;BME280;47692;53.714;11.372;2023-07-20T10:26:25;100548.94;;;17.19;76.30
61786;BME280;47692;53.714;11.372;2023-07-20T10:28:51;100528.19;;;16.77;78.85
61786;BME280;47692;53.714;11.372;2023-07-20T10:31:17;100524.97;;;16.55;82.11
61786;BME280;47692;53.714;11.372;2023-07-20T10:33:43;100531.56;;;16.63;86.45
61786;BME280;47692;53.714;11.372;2023-07-20T10:36:10;100529.41;;;16.88;91.78
61786;BME280;47692;53.714;11.372;2023-07-20T10:41:21;100526.38;;;17.29;90.55
61786;BME280;47692;53.714;11.372;2023-07-20T10:43:48;100535.28;;;17.60;88.64
61786;BME280;47692;53.714;11.372;2023-07-20T10:46:14;100546.94;;;18.04;85.71
61786;BME280;47692;53.714;11.372;2023-07-20T10:48:58;100541.97;;;18.30;80.79
61786;BME280;47692;53.714;11.372;2023-07-20T10:51:24;100553.84;;;18.53;75.36
61786;BME280;47692;53.714;11.372;2023-07-20T10:53:49;100541.19;;;18.58;67.04
61786;BME280;47692;53.714;11.372;2023-07-20T10:56:20;100545.72;;;18.56;65.27
61786;BME280;47692;53.714;11.372;2023-07-20T10:58:45;100546.31;;;18.61;65.37
61786;BME280;47692;53.714;11.372;2023-07-20T11:01:15;100545.91;;;18.53;66.45
61786;BME280;47692;53.714;11.372;2023-07-20T11:03:41;100537.66;;;18.43;63.52
61786;BME280;47692;53.714;11.372;2023-07-20T11:09:04;100530.94;;;18.37;63.28
61786;BME280;47692;53.714;11.372;2023-07-20T11:11:31;100535.50;;;18.50;63.92
61786;BME280;47692;53.714;11.372;2023-07-20T11:14:01;100534.34;;;18.70;60.54
61786;BME280;47692;53.714;11.372;2023-07-20T11:19:55;100535.94;;;18.87;61.61
61786;BME280;47692;53.714;11.372;2023-07-20T11:22:21;100525.19;;;18.76;62.13
61786;BME280;47692;53.714;11.372;2023-07-20T11:24:47;100525.91;;;18.63;63.76
61786;BME280;47692;53.714;11.372;2023-07-20T11:30:37;100541.84;;;18.17;67.21
61786;BME280;47692;53.714;11.372;2023-07-20T11:33:03;100542.00;;;18.14;67.78
61786;BME280;47692;53.714;11.372;2023-07-20T11:35:29;100548.13;;;18.30;68.41
61786;BME280;47692;53.714;11.372;2023-07-20T11:37:54;100536.34;;;18.20;68.10
61786;BME280;47692;53.714;11.372;2023-07-20T11:40:20;100538.72;;;18.40;68.53
61786;BME280;47692;53.714;11.372;2023-07-20T11:42:45;100545.66;;;18.57;68.78
61786;BME280;47692;53.714;11.372;2023-07-20T11:45:11;100552.41;;;18.92;68.57
61786;BME280;47692;53.714;11.372;2023-07-20T11:47:40;100552.28;;;19.10;68.24
61786;BME280;47692;53.714;11.372;2023-07-20T11:53:28;100535.22;;;19.43;64.18
61786;BME280;47692;53.714;11.372;2023-07-20T12:09:22;100541.09;;;17.67;69.17
61786;BME280;47692;53.714;11.372;2023-07-20T12:11:49;100543.00;;;17.31;75.47
61786;BME280;47692;53.714;11.372;2023-07-20T12:14:15;100554.72;;;17.09;79.55
61786;BME280;47692;53.714;11.372;2023-07-20T12:16:40;100545.41;;;16.85;80.81
61786;BME280;47692;53.714;11.372;2023-07-20T12:19:11;100545.97;;;16.56;80.30
61786;BME280;47692;53.714;11.372;2023-07-20T12:21:38;100545.56;;;16.46;82.36
61786;BME280;47692;53.714;11.372;2023-07-20T12:24:04;100538.50;;;16.47;82.91
61786;BME280;47692;53.714;11.372;2023-07-20T12:26:31;100548.91;;;16.68;82.78
61786;BME280;47692;53.714;11.372;2023-07-20T12:28:56;100548.09;;;16.83;82.91
61786;BME280;47692;53.714;11.372;2023-07-20T12:31:22;100555.34;;;16.97;83.18
61786;BME280;47692;53.714;11.372;2023-07-20T12:33:50;100565.09;;;17.12;83.29
61786;BME280;47692;53.714;11.372;2023-07-20T12:36:15;100561.38;;;17.33;82.10
61786;BME280;47692;53.714;11.372;2023-07-20T12:38:41;100571.75;;;17.69;84.24
61786;BME280;47692;53.714;11.372;2023-07-20T12:41:07;100568.41;;;17.82;80.62
61786;BME280;47692;53.714;11.372;2023-07-20T12:43:33;100571.81;;;17.84;80.31
61786;BME280;47692;53.714;11.372;2023-07-20T12:45:59;100572.66;;;17.68;79.50
61786;BME280;47692;53.714;11.372;2023-07-20T12:48:24;100570.81;;;17.21;78.80
61786;BME280;47692;53.714;11.372;2023-07-20T12:50:50;100551.06;;;16.94;80.22
61786;BME280;47692;53.714;11.372;2023-07-20T12:53:16;100559.97;;;16.74;81.74
61786;BME280;47692;53.714;11.372;2023-07-20T12:55:42;100551.75;;;16.63;82.31
61786;BME280;47692;53.714;11.372;2023-07-20T12:58:08;100546.09;;;16.53;82.48
61786;BME280;47692;53.714;11.372;2023-07-20T13:00:34;100556.19;;;16.62;83.57
61786;BME280;47692;53.714;11.372;2023-07-20T13:02:59;100549.97;;;16.81;85.60
61786;BME280;47692;53.714;11.372;2023-07-20T13:05:24;100550.03;;;16.79;82.06
61786;BME280;47692;53.714;11.372;2023-07-20T13:07:50;100554.84;;;17.06;83.49
61786;BME280;47692;53.714;11.372;2023-07-20T13:10:15;100571.44;;;17.42;79.33
61786;BME280;47692;53.714;11.372;2023-07-20T13:12:41;100580.59;;;17.68;79.09
61786;BME280;47692;53.714;11.372;2023-07-20T13:15:07;100574.53;;;17.82;77.85
61786;BME280;47692;53.714;11.372;2023-07-20T13:17:37;100564.81;;;17.83;75.64
61786;BME280;47692;53.714;11.372;2023-07-20T13:20:07;100563.28;;;17.79;75.96
61786;BME280;47692;53.714;11.372;2023-07-20T13:22:35;100553.50;;;17.81;75.87
61786;BME280;47692;53.714;11.372;2023-07-20T13:25:00;100576.75;;;17.90;76.59
61786;BME280;47692;53.714;11.372;2023-07-20T13:27:26;100587.69;;;18.16;75.86
61786;BME280;47692;53.714;11.372;2023-07-20T13:29:51;100587.44;;;18.51;74.76
61786;BME280;47692;53.714;11.372;2023-07-20T13:32:17;100587.41;;;18.67;73.80
61786;BME280;47692;53.714;11.372;2023-07-20T13:34:46;100586.88;;;18.76;72.19
61786;BME280;47692;53.714;11.372;2023-07-20T13:37:12;100590.75;;;18.85;71.50
61786;BME280;47692;53.714;11.372;2023-07-20T13:39:38;100600.53;;;19.13;71.40
61786;BME280;47692;53.714;11.372;2023-07-20T13:42:04;100606.31;;;19.49;70.18
61786;BME280;47692;53.714;11.372;2023-07-20T13:44:32;100599.50;;;19.59;68.39
61786;BME280;47692;53.714;11.372;2023-07-20T13:46:58;100592.16;;;19.50;67.56
61786;BME280;47692;53.714;11.372;2023-07-20T13:49:23;100581.72;;;19.47;67.02
61786;BME280;47692;53.714;11.372;2023-07-20T13:51:49;100579.09;;;19.32;65.36
61786;BME280;47692;53.714;11.372;2023-07-20T13:54:14;100576.84;;;19.26;65.77
61786;BME280;47692;53.714;11.372;2023-07-20T13:56:39;100599.22;;;19.64;65.19
61786;BME280;47692;53.714;11.372;2023-07-20T13:59:04;100598.00;;;20.11;64.52
61786;BME280;47692;53.714;11.372;2023-07-20T14:01:30;100606.00;;;20.52;64.82
61786;BME280;47692;53.714;11.372;2023-07-20T14:03:58;100607.81;;;20.91;62.96
61786;BME280;47692;53.714;11.372;2023-07-20T14:06:23;100591.59;;;20.69;64.12
61786;BME280;47692;53.714;11.372;2023-07-20T14:08:48;100585.88;;;20.62;61.84
61786;BME280;47692;53.714;11.372;2023-07-20T14:11:14;100577.75;;;20.38;61.65
61786;BME280;47692;53.714;11.372;2023-07-20T14:13:40;100581.97;;;20.27;62.10
61786;BME280;47692;53.714;11.372;2023-07-20T14:16:06;100556.16;;;19.89;62.87
61786;BME280;47692;53.714;11.372;2023-07-20T14:18:31;100565.66;;;19.64;64.38
61786;BME280;47692;53.714;11.372;2023-07-20T14:20:57;100562.19;;;19.35;66.99
61786;BME280;47692;53.714;11.372;2023-07-20T14:23:22;100573.53;;;19.23;68.45
61786;BME280;47692;53.714;11.372;2023-07-20T14:25:48;100581.69;;;18.89;70.94
61786;BME280;47692;53.714;11.372;2023-07-20T14:28:13;100543.19;;;17.60;82.09
61786;BME280;47692;53.714;11.372;2023-07-20T14:30:39;100519.50;;;16.93;86.83
61786;BME280;47692;53.714;11.372;2023-07-20T14:33:05;100516.56;;;16.64;89.40
61786;BME280;47692;53.714;11.372;2023-07-20T14:35:30;100515.31;;;16.19;88.03
61786;BME280;47692;53.714;11.372;2023-07-20T14:37:55;100490.22;;;15.94;91.26
61786;BME280;47692;53.714;11.372;2023-07-20T14:40:22;100499.88;;;15.74;94.56
61786;BME280;47692;53.714;11.372;2023-07-20T14:42:47;100504.00;;;15.80;96.94
61786;BME280;47692;53.714;11.372;2023-07-20T14:45:13;100514.25;;;16.05;100.00
61786;BME280;47692;53.714;11.372;2023-07-20T14:47:39;100495.91;;;16.21;98.08
61786;BME280;47692;53.714;11.372;2023-07-20T14:50:05;100536.44;;;16.36;97.13
61786;BME280;47692;53.714;11.372;2023-07-20T14:52:31;100548.19;;;16.46;96.31
61786;BME280;47692;53.714;11.372;2023-07-20T14:54:56;100553.47;;;16.64;97.91
61786;BME280;47692;53.714;11.372;2023-07-20T14:57:21;100557.34;;;16.74;97.82
61786;BME280;47692;53.714;11.372;2023-07-20T14:59:49;100561.84;;;16.90;96.64
61786;BME280;47692;53.714;11.372;2023-07-20T15:02:14;100538.09;;;16.90;94.54
61786;BME280;47692;53.714;11.372;2023-07-20T15:04:49;100556.50;;;16.91;92.98
61786;BME280;47692;53.714;11.372;2023-07-20T15:07:18;100568.03;;;16.89;92.86